sensor_id;sensor_type;location;lat;lon;timestamp;temperature;humidity
5415;DHT22;2730;51.512;7.504;2023-02-28T00:01:07;-0.40;99.90
5415;DHT22;2730;51.512;7.504;2023-02-28T00:03:34;-0.30;99.90
5415;DHT22;2730;51.512;7.504;2023-02-28T00:06:02;-0.30;99.90
5415;DHT22;2730;51.512;7.504;2023-02-28T00:08:29;-0.30;99.90
5415;DHT22;2730;51.512;7.504;2023-02-28T00:10:56;-0.40;99.90
5415;DHT22;2730;51.512;7.504;2023-02-28T00:13:24;-0.50;99.90
5415;DHT22;2730;51.512;7.504;2023-02-28T00:15:59;-0.40;99.90
5415;DHT22;2730;51.512;7.504;2023-02-28T00:18:26;-0.50;99.90
5415;DHT22;2730;51.512;7.504;2023-02-28T00:20:53;-0.50;99.90
5415;DHT22;2730;51.512;7.504;2023-02-28T00:23:20;-0.60;99.90
5415;DHT22;2730;51.512;7.504;2023-02-28T00:25:47;-0.50;99.90
5415;DHT22;2730;51.512;7.504;2023-02-28T00:28:13;-0.70;99.90
5415;DHT22;2730;51.512;7.504;2023-02-28T00:30:42;-0.70;99.90
5415;DHT22;2730;51.512;7.504;2023-02-28T00:33:08;-0.70;99.90
5415;DHT22;2730;51.512;7.504;2023-02-28T00:35:35;-0.80;99.90
5415;DHT22;2730;51.512;7.504;2023-02-28T00:38:02;-0.90;99.90
5415;DHT22;2730;51.512;7.504;2023-02-28T00:40:29;-1.00;99.90
5415;DHT22;2730;51.512;7.504;2023-02-28T00:42:56;-0.90;99.90
5415;DHT22;2730;51.512;7.504;2023-02-28T00:45:23;-1.00;99.90
5415;DHT22;2730;51.512;7.504;2023-02-28T00:47:51;-1.00;99.90
5415;DHT22;2730;51.512;7.504;2023-02-28T00:50:18;-1.10;99.90
5415;DHT22;2730;51.512;7.504;2023-02-28T00:52:45;-1.00;99.90
5415;DHT22;2730;51.512;7.504;2023-02-28T00:55:12;-0.90;99.90
5415;DHT22;2730;51.512;7.504;2023-02-28T00:57:39;-0.90;99.90
5415;DHT22;2730;51.512;7.504;2023-02-28T01:00:07;-1.00;99.90
5415;DHT22;2730;51.512;7.504;2023-02-28T01:02:34;-1.00;99.90
5415;DHT22;2730;51.512;7.504;2023-02-28T01:05:03;-1.00;99.90
5415;DHT22;2730;51.512;7.504;2023-02-28T01:07:30;-1.10;99.90
5415;DHT22;2730;51.512;7.504;2023-02-28T01:09:57;-1.10;99.90
5415;DHT22;2730;51.512;7.504;2023-02-28T01:12:23;-1.20;99.90
5415;DHT22;2730;51.512;7.504;2023-02-28T01:14:50;-1.20;99.90
5415;DHT22;2730;51.512;7.504;2023-02-28T01:17:17;-1.20;99.90
5415;DHT22;2730;51.512;7.504;2023-02-28T01:19:44;-1.10;99.90
5415;DHT22;2730;51.512;7.504;2023-02-28T01:22:12;-1.20;99.90
5415;DHT22;2730;51.512;7.504;2023-02-28T01:24:38;-1.30;99.90
5415;DHT22;2730;51.512;7.504;2023-02-28T01:27:05;-1.40;99.90
5415;DHT22;2730;51.512;7.504;2023-02-28T01:29:32;-1.40;99.90
5415;DHT22;2730;51.512;7.504;2023-02-28T01:31:59;-1.50;99.90
5415;DHT22;2730;51.512;7.504;2023-02-28T01:34:26;-1.50;99.90
5415;DHT22;2730;51.512;7.504;2023-02-28T01:36:52;-1.50;99.90
5415;DHT22;2730;51.512;7.504;2023-02-28T01:39:20;-1.50;99.90
5415;DHT22;2730;51.512;7.504;2023-02-28T01:41:47;-1.60;99.90
5415;DHT22;2730;51.512;7.504;2023-02-28T01:47:18;-1.60;99.90
5415;DHT22;2730;51.512;7.504;2023-02-28T01:49:46;-1.70;99.90
5415;DHT22;2730;51.512;7.504;2023-02-28T01:52:15;-1.70;99.90
5415;DHT22;2730;51.512;7.504;2023-02-28T01:54:46;-1.80;99.90
5415;DHT22;2730;51.512;7.504;2023-02-28T01:57:17;-1.70;99.90
5415;DHT22;2730;51.512;7.504;2023-02-28T01:59:49;-1.70;99.90
5415;DHT22;2730;51.512;7.504;2023-02-28T02:02:20;-1.80;99.90
5415;DHT22;2730;51.512;7.504;2023-02-28T02:04:51;-1.90;99.90
5415;DHT22;2730;51.512;7.504;2023-02-28T02:07:20;-1.90;99.90
5415;DHT22;2730;51.512;7.504;2023-02-28T02:09:49;-2.00;99.90
5415;DHT22;2730;51.512;7.504;2023-02-28T02:12:23;-1.90;99.90
5415;DHT22;2730;51.512;7.504;2023-02-28T02:15:01;-1.90;99.90
5415;DHT22;2730;51.512;7.504;2023-02-28T02:17:34;-1.90;99.90
5415;DHT22;2730;51.512;7.504;2023-02-28T02:20:38;-1.90;99.90
5415;DHT22;2730;51.512;7.504;2023-02-28T02:23:30;-1.90;99.90
5415;DHT22;2730;51.512;7.504;2023-02-28T02:26:26;-1.90;99.90
5415;DHT22;2730;51.512;7.504;2023-02-28T02:35:10;-1.90;99.90
5415;DHT22;2730;51.512;7.504;2023-02-28T02:37:42;-1.90;99.90
5415;DHT22;2730;51.512;7.504;2023-02-28T02:40:14;-1.90;99.90
5415;DHT22;2730;51.512;7.504;2023-02-28T02:42:45;-1.90;99.90
5415;DHT22;2730;51.512;7.504;2023-02-28T02:45:21;-1.90;99.90
5415;DHT22;2730;51.512;7.504;2023-02-28T02:47:49;-2.00;99.90
5415;DHT22;2730;51.512;7.504;2023-02-28T02:50:22;-2.00;99.90
5415;DHT22;2730;51.512;7.504;2023-02-28T02:52:53;-1.90;99.90
5415;DHT22;2730;51.512;7.504;2023-02-28T02:55:22;-1.90;99.90
5415;DHT22;2730;51.512;7.504;2023-02-28T02:57:51;-1.90;99.90
5415;DHT22;2730;51.512;7.504;2023-02-28T03:00:22;-1.70;99.90
5415;DHT22;2730;51.512;7.504;2023-02-28T03:02:52;-1.80;99.90
5415;DHT22;2730;51.512;7.504;2023-02-28T03:05:25;-1.90;99.90
5415;DHT22;2730;51.512;7.504;2023-02-28T03:07:52;-1.90;99.90
5415;DHT22;2730;51.512;7.504;2023-02-28T03:10:30;-1.90;99.90
5415;DHT22;2730;51.512;7.504;2023-02-28T03:16:01;-2.00;99.90
5415;DHT22;2730;51.512;7.504;2023-02-28T03:18:38;-2.00;99.90
5415;DHT22;2730;51.512;7.504;2023-02-28T03:21:14;-2.00;99.90
5415;DHT22;2730;51.512;7.504;2023-02-28T03:23:51;-2.10;99.90
5415;DHT22;2730;51.512;7.504;2023-02-28T03:26:22;-2.10;99.90
5415;DHT22;2730;51.512;7.504;2023-02-28T03:28:54;-2.10;99.90
5415;DHT22;2730;51.512;7.504;2023-02-28T03:31:27;-2.10;99.90
5415;DHT22;2730;51.512;7.504;2023-02-28T03:34:00;-2.10;99.90
5415;DHT22;2730;51.512;7.504;2023-02-28T03:36:33;-2.20;99.90
5415;DHT22;2730;51.512;7.504;2023-02-28T03:39:13;-2.20;99.90
5415;DHT22;2730;51.512;7.504;2023-02-28T03:41:43;-2.20;99.90
5415;DHT22;2730;51.512;7.504;2023-02-28T03:44:16;-2.20;99.90
5415;DHT22;2730;51.512;7.504;2023-02-28T03:46:48;-2.20;99.90
5415;DHT22;2730;51.512;7.504;2023-02-28T03:49:20;-2.30;99.90
5415;DHT22;2730;51.512;7.504;2023-02-28T03:51:52;-2.30;99.90
5415;DHT22;2730;51.512;7.504;2023-02-28T03:54:23;-2.30;99.90
5415;DHT22;2730;51.512;7.504;2023-02-28T03:56:56;-2.30;99.90
5415;DHT22;2730;51.512;7.504;2023-02-28T03:59:30;-2.30;99.90
5415;DHT22;2730;51.512;7.504;2023-02-28T04:01:59;-2.20;99.90
5415;DHT22;2730;51.512;7.504;2023-02-28T04:04:26;-2.10;99.90
5415;DHT22;2730;51.512;7.504;2023-02-28T04:07:02;-2.10;99.90
5415;DHT22;2730;51.512;7.504;2023-02-28T04:09:29;-2.10;99.90
5415;DHT22;2730;51.512;7.504;2023-02-28T04:11:56;-2.10;99.90
5415;DHT22;2730;51.512;7.504;2023-02-28T04:14:23;-2.20;99.90
5415;DHT22;2730;51.512;7.504;2023-02-28T04:16:50;-2.10;99.90
5415;DHT22;2730;51.512;7.504;2023-02-28T04:19:18;-2.00;99.90
5415;DHT22;2730;51.512;7.504;2023-02-28T04:21:46;-2.00;99.90
5415;DHT22;2730;51.512;7.504;2023-02-28T04:24:16;-2.00;99.90
5415;DHT22;2730;51.512;7.504;2023-02-28T04:26:46;-1.90;99.90
5415;DHT22;2730;51.512;7.504;2023-02-28T04:29:17;-1.80;99.90
5415;DHT22;2730;51.512;7.504;2023-02-28T04:31:44;-1.80;99.90
5415;DHT22;2730;51.512;7.504;2023-02-28T04:34:11;-1.90;99.90
5415;DHT22;2730;51.512;7.504;2023-02-28T04:36:38;-2.00;99.90
5415;DHT22;2730;51.512;7.504;2023-02-28T04:39:05;-2.10;99.90
5415;DHT22;2730;51.512;7.504;2023-02-28T04:41:33;-2.20;99.90
5415;DHT22;2730;51.512;7.504;2023-02-28T04:43:59;-2.10;99.90
5415;DHT22;2730;51.512;7.504;2023-02-28T04:46:26;-2.10;99.90
5415;DHT22;2730;51.512;7.504;2023-02-28T04:48:53;-2.00;99.90
5415;DHT22;2730;51.512;7.504;2023-02-28T04:51:20;-2.10;99.90
5415;DHT22;2730;51.512;7.504;2023-02-28T04:53:47;-2.20;99.90
5415;DHT22;2730;51.512;7.504;2023-02-28T04:56:15;-2.30;99.90
5415;DHT22;2730;51.512;7.504;2023-02-28T04:58:44;-2.50;99.90
5415;DHT22;2730;51.512;7.504;2023-02-28T05:01:23;-2.50;99.90
5415;DHT22;2730;51.512;7.504;2023-02-28T05:03:51;-2.70;99.90
5415;DHT22;2730;51.512;7.504;2023-02-28T05:06:19;-2.70;99.90
5415;DHT22;2730;51.512;7.504;2023-02-28T05:08:46;-2.80;99.90
5415;DHT22;2730;51.512;7.504;2023-02-28T05:11:17;-2.80;99.90
5415;DHT22;2730;51.512;7.504;2023-02-28T05:13:45;-2.80;99.90
5415;DHT22;2730;51.512;7.504;2023-02-28T05:16:12;-2.80;99.90
5415;DHT22;2730;51.512;7.504;2023-02-28T05:18:39;-2.90;99.90
5415;DHT22;2730;51.512;7.504;2023-02-28T05:21:23;-2.90;99.90
5415;DHT22;2730;51.512;7.504;2023-02-28T05:23:50;-2.90;99.90
5415;DHT22;2730;51.512;7.504;2023-02-28T05:26:17;-2.90;99.90
5415;DHT22;2730;51.512;7.504;2023-02-28T05:28:45;-2.90;99.90
5415;DHT22;2730;51.512;7.504;2023-02-28T05:31:12;-3.00;99.90
5415;DHT22;2730;51.512;7.504;2023-02-28T05:33:39;-3.00;99.90
5415;DHT22;2730;51.512;7.504;2023-02-28T05:36:07;-3.00;99.90
5415;DHT22;2730;51.512;7.504;2023-02-28T05:38:33;-3.00;99.90
5415;DHT22;2730;51.512;7.504;2023-02-28T05:41:04;-3.00;99.90
5415;DHT22;2730;51.512;7.504;2023-02-28T05:43:31;-3.00;99.90
5415;DHT22;2730;51.512;7.504;2023-02-28T05:45:59;-3.00;99.90
5415;DHT22;2730;51.512;7.504;2023-02-28T05:48:26;-3.00;99.90
5415;DHT22;2730;51.512;7.504;2023-02-28T05:50:52;-3.10;99.90
5415;DHT22;2730;51.512;7.504;2023-02-28T05:53:19;-3.10;99.90
5415;DHT22;2730;51.512;7.504;2023-02-28T05:55:46;-3.00;99.90
5415;DHT22;2730;51.512;7.504;2023-02-28T05:58:13;-3.10;99.90
5415;DHT22;2730;51.512;7.504;2023-02-28T06:00:39;-3.00;99.90
5415;DHT22;2730;51.512;7.504;2023-02-28T06:03:07;-3.00;99.90
5415;DHT22;2730;51.512;7.504;2023-02-28T06:05:34;-3.00;99.90
5415;DHT22;2730;51.512;7.504;2023-02-28T06:08:01;-2.80;99.90
5415;DHT22;2730;51.512;7.504;2023-02-28T06:10:28;-2.90;99.90
5415;DHT22;2730;51.512;7.504;2023-02-28T06:12:54;-2.90;99.90
5415;DHT22;2730;51.512;7.504;2023-02-28T06:15:21;-2.90;99.90
5415;DHT22;2730;51.512;7.504;2023-02-28T06:17:48;-3.00;99.90
5415;DHT22;2730;51.512;7.504;2023-02-28T06:20:16;-3.10;99.90
5415;DHT22;2730;51.512;7.504;2023-02-28T06:22:43;-3.10;99.90
5415;DHT22;2730;51.512;7.504;2023-02-28T06:25:10;-3.10;99.90
5415;DHT22;2730;51.512;7.504;2023-02-28T06:27:37;-3.10;99.90
5415;DHT22;2730;51.512;7.504;2023-02-28T06:30:05;-3.10;99.90
5415;DHT22;2730;51.512;7.504;2023-02-28T06:32:32;-3.00;99.90
5415;DHT22;2730;51.512;7.504;2023-02-28T06:34:58;-3.10;99.90
5415;DHT22;2730;51.512;7.504;2023-02-28T06:37:27;-3.10;99.90
5415;DHT22;2730;51.512;7.504;2023-02-28T06:39:54;-3.00;99.90
5415;DHT22;2730;51.512;7.504;2023-02-28T06:42:21;-3.00;99.90
5415;DHT22;2730;51.512;7.504;2023-02-28T06:44:50;-3.00;99.90
5415;DHT22;2730;51.512;7.504;2023-02-28T06:47:17;-3.00;99.90
5415;DHT22;2730;51.512;7.504;2023-02-28T06:49:44;-3.00;99.90
5415;DHT22;2730;51.512;7.504;2023-02-28T06:52:11;-3.00;99.90
5415;DHT22;2730;51.512;7.504;2023-02-28T06:54:39;-3.00;99.90
5415;DHT22;2730;51.512;7.504;2023-02-28T06:57:05;-3.00;99.90
5415;DHT22;2730;51.512;7.504;2023-02-28T06:59:32;-2.90;99.90
5415;DHT22;2730;51.512;7.504;2023-02-28T07:02:00;-2.90;99.90
5415;DHT22;2730;51.512;7.504;2023-02-28T07:04:27;-2.90;99.90
5415;DHT22;2730;51.512;7.504;2023-02-28T07:06:54;-2.90;99.90
5415;DHT22;2730;51.512;7.504;2023-02-28T07:09:23;-2.80;99.90
5415;DHT22;2730;51.512;7.504;2023-02-28T07:11:56;-2.70;99.90
5415;DHT22;2730;51.512;7.504;2023-02-28T07:14:23;-2.70;99.90
5415;DHT22;2730;51.512;7.504;2023-02-28T07:16:49;-2.70;99.90
5415;DHT22;2730;51.512;7.504;2023-02-28T07:19:16;-2.70;99.90
5415;DHT22;2730;51.512;7.504;2023-02-28T07:21:43;-2.60;99.90
5415;DHT22;2730;51.512;7.504;2023-02-28T07:24:10;-2.50;99.90
5415;DHT22;2730;51.512;7.504;2023-02-28T07:26:37;-2.40;99.90
5415;DHT22;2730;51.512;7.504;2023-02-28T07:29:05;-2.20;99.90
5415;DHT22;2730;51.512;7.504;2023-02-28T07:31:32;-2.10;99.90
5415;DHT22;2730;51.512;7.504;2023-02-28T07:33:59;-1.90;99.90
5415;DHT22;2730;51.512;7.504;2023-02-28T07:36:26;-1.70;99.90
5415;DHT22;2730;51.512;7.504;2023-02-28T07:38:52;-1.50;99.90
5415;DHT22;2730;51.512;7.504;2023-02-28T07:41:20;-1.30;99.90
5415;DHT22;2730;51.512;7.504;2023-02-28T07:43:48;-1.10;99.90
5415;DHT22;2730;51.512;7.504;2023-02-28T07:46:17;-0.90;99.90
5415;DHT22;2730;51.512;7.504;2023-02-28T07:48:45;-0.70;99.90
5415;DHT22;2730;51.512;7.504;2023-02-28T07:51:12;-0.60;99.90
5415;DHT22;2730;51.512;7.504;2023-02-28T07:53:39;-0.40;99.90
5415;DHT22;2730;51.512;7.504;2023-02-28T07:56:07;-0.40;99.90
5415;DHT22;2730;51.512;7.504;2023-02-28T07:58:34;-0.50;99.90
5415;DHT22;2730;51.512;7.504;2023-02-28T08:01:05;-0.60;99.90
5415;DHT22;2730;51.512;7.504;2023-02-28T08:03:33;-0.70;99.90
5415;DHT22;2730;51.512;7.504;2023-02-28T08:06:00;-0.80;99.90
5415;DHT22;2730;51.512;7.504;2023-02-28T08:08:28;-0.80;99.90
5415;DHT22;2730;51.512;7.504;2023-02-28T08:10:58;-0.80;99.90
5415;DHT22;2730;51.512;7.504;2023-02-28T08:13:25;-0.90;99.90
5415;DHT22;2730;51.512;7.504;2023-02-28T08:15:52;-0.90;99.90
5415;DHT22;2730;51.512;7.504;2023-02-28T08:18:19;-0.90;99.90
5415;DHT22;2730;51.512;7.504;2023-02-28T08:20:47;-0.80;99.90
5415;DHT22;2730;51.512;7.504;2023-02-28T08:23:14;-0.70;99.90
5415;DHT22;2730;51.512;7.504;2023-02-28T08:25:41;-0.70;99.90
5415;DHT22;2730;51.512;7.504;2023-02-28T08:28:08;-0.60;99.90
5415;DHT22;2730;51.512;7.504;2023-02-28T08:30:34;-0.50;99.90
5415;DHT22;2730;51.512;7.504;2023-02-28T08:33:01;-0.30;99.90
5415;DHT22;2730;51.512;7.504;2023-02-28T08:35:28;-0.10;99.90
5415;DHT22;2730;51.512;7.504;2023-02-28T08:37:56;-0.10;99.90
5415;DHT22;2730;51.512;7.504;2023-02-28T08:40:23;-0.10;99.90
5415;DHT22;2730;51.512;7.504;2023-02-28T08:42:50;0.00;99.90
5415;DHT22;2730;51.512;7.504;2023-02-28T08:45:17;0.00;99.90
5415;DHT22;2730;51.512;7.504;2023-02-28T08:47:44;0.00;99.90
5415;DHT22;2730;51.512;7.504;2023-02-28T08:50:10;0.10;99.90
5415;DHT22;2730;51.512;7.504;2023-02-28T08:52:42;0.20;99.90
5415;DHT22;2730;51.512;7.504;2023-02-28T08:55:10;0.30;99.90
5415;DHT22;2730;51.512;7.504;2023-02-28T08:57:37;1.00;99.90
5415;DHT22;2730;51.512;7.504;2023-02-28T09:00:05;2.50;99.90
5415;DHT22;2730;51.512;7.504;2023-02-28T09:02:33;4.10;99.90
5415;DHT22;2730;51.512;7.504;2023-02-28T09:05:00;5.40;99.90
5415;DHT22;2730;51.512;7.504;2023-02-28T09:07:27;6.00;99.90
5415;DHT22;2730;51.512;7.504;2023-02-28T09:09:54;6.30;99.90
5415;DHT22;2730;51.512;7.504;2023-02-28T09:12:22;7.20;99.90
5415;DHT22;2730;51.512;7.504;2023-02-28T09:14:50;7.50;99.90
5415;DHT22;2730;51.512;7.504;2023-02-28T09:17:17;7.60;98.50
5415;DHT22;2730;51.512;7.504;2023-02-28T09:19:44;7.60;97.90
5415;DHT22;2730;51.512;7.504;2023-02-28T09:22:11;8.10;96.70
5415;DHT22;2730;51.512;7.504;2023-02-28T09:24:38;8.10;96.90
5415;DHT22;2730;51.512;7.504;2023-02-28T09:27:05;8.40;95.20
5415;DHT22;2730;51.512;7.504;2023-02-28T09:29:34;8.30;94.90
5415;DHT22;2730;51.512;7.504;2023-02-28T09:32:01;8.00;96.10
5415;DHT22;2730;51.512;7.504;2023-02-28T09:34:28;8.10;96.00
5415;DHT22;2730;51.512;7.504;2023-02-28T09:36:56;8.50;95.20
5415;DHT22;2730;51.512;7.504;2023-02-28T09:39:23;8.70;94.80
5415;DHT22;2730;51.512;7.504;2023-02-28T09:41:52;8.40;93.20
5415;DHT22;2730;51.512;7.504;2023-02-28T09:44:24;8.40;93.90
5415;DHT22;2730;51.512;7.504;2023-02-28T09:46:57;8.70;93.60
5415;DHT22;2730;51.512;7.504;2023-02-28T09:49:33;9.40;92.00
5415;DHT22;2730;51.512;7.504;2023-02-28T09:52:03;9.10;91.60
5415;DHT22;2730;51.512;7.504;2023-02-28T09:54:32;9.20;91.00
5415;DHT22;2730;51.512;7.504;2023-02-28T09:57:02;8.10;91.90
5415;DHT22;2730;51.512;7.504;2023-02-28T09:59:50;6.30;93.70
5415;DHT22;2730;51.512;7.504;2023-02-28T10:05:31;4.30;98.00
5415;DHT22;2730;51.512;7.504;2023-02-28T10:08:03;4.10;99.90
5415;DHT22;2730;51.512;7.504;2023-02-28T10:10:37;4.90;99.60
5415;DHT22;2730;51.512;7.504;2023-02-28T10:13:06;6.00;98.10
5415;DHT22;2730;51.512;7.504;2023-02-28T10:15:38;7.20;96.50
5415;DHT22;2730;51.512;7.504;2023-02-28T10:18:12;7.90;94.00
5415;DHT22;2730;51.512;7.504;2023-02-28T10:20:42;7.90;93.10
5415;DHT22;2730;51.512;7.504;2023-02-28T10:23:14;8.10;91.30
5415;DHT22;2730;51.512;7.504;2023-02-28T10:25:47;7.90;91.60
5415;DHT22;2730;51.512;7.504;2023-02-28T10:28:17;7.70;90.70
5415;DHT22;2730;51.512;7.504;2023-02-28T10:30:47;7.40;90.80
5415;DHT22;2730;51.512;7.504;2023-02-28T10:33:22;7.20;91.20
5415;DHT22;2730;51.512;7.504;2023-02-28T10:35:49;7.40;91.50
5415;DHT22;2730;51.512;7.504;2023-02-28T10:38:20;7.20;91.50
5415;DHT22;2730;51.512;7.504;2023-02-28T10:40:47;7.80;91.80
5415;DHT22;2730;51.512;7.504;2023-02-28T10:43:21;8.30;90.50
5415;DHT22;2730;51.512;7.504;2023-02-28T10:46:03;8.00;89.40
5415;DHT22;2730;51.512;7.504;2023-02-28T10:48:37;7.50;90.00
5415;DHT22;2730;51.512;7.504;2023-02-28T10:51:05;7.70;89.40
5415;DHT22;2730;51.512;7.504;2023-02-28T10:53:44;7.50;89.10
5415;DHT22;2730;51.512;7.504;2023-02-28T10:56:16;7.30;87.40
5415;DHT22;2730;51.512;7.504;2023-02-28T10:58:49;7.00;90.00
5415;DHT22;2730;51.512;7.504;2023-02-28T11:01:18;6.90;90.10
5415;DHT22;2730;51.512;7.504;2023-02-28T11:03:47;6.70;91.40
5415;DHT22;2730;51.512;7.504;2023-02-28T11:06:17;6.90;89.50
5415;DHT22;2730;51.512;7.504;2023-02-28T11:08:47;6.50;90.60
5415;DHT22;2730;51.512;7.504;2023-02-28T11:11:16;6.80;90.30
5415;DHT22;2730;51.512;7.504;2023-02-28T11:13:44;6.70;90.50
5415;DHT22;2730;51.512;7.504;2023-02-28T11:16:13;6.40;91.00
5415;DHT22;2730;51.512;7.504;2023-02-28T11:18:43;5.80;91.60
5415;DHT22;2730;51.512;7.504;2023-02-28T11:21:18;5.20;92.10
5415;DHT22;2730;51.512;7.504;2023-02-28T11:23:47;4.70;92.90
5415;DHT22;2730;51.512;7.504;2023-02-28T11:26:16;4.60;93.10
5415;DHT22;2730;51.512;7.504;2023-02-28T11:29:11;4.60;94.10
5415;DHT22;2730;51.512;7.504;2023-02-28T11:31:39;4.50;94.80
5415;DHT22;2730;51.512;7.504;2023-02-28T11:34:23;4.50;95.40
5415;DHT22;2730;51.512;7.504;2023-02-28T11:36:52;4.60;94.70
5415;DHT22;2730;51.512;7.504;2023-02-28T11:39:19;4.70;94.70
5415;DHT22;2730;51.512;7.504;2023-02-28T11:45:11;4.60;94.70
5415;DHT22;2730;51.512;7.504;2023-02-28T11:47:47;4.50;95.00
5415;DHT22;2730;51.512;7.504;2023-02-28T11:53:19;4.60;94.30
5415;DHT22;2730;51.512;7.504;2023-02-28T11:55:51;4.50;94.60
5415;DHT22;2730;51.512;7.504;2023-02-28T11:58:29;4.50;95.00
5415;DHT22;2730;51.512;7.504;2023-02-28T12:01:17;4.60;95.10
5415;DHT22;2730;51.512;7.504;2023-02-28T12:03:56;4.60;95.80
5415;DHT22;2730;51.512;7.504;2023-02-28T12:06:28;4.50;96.10
5415;DHT22;2730;51.512;7.504;2023-02-28T12:09:08;4.70;95.50
5415;DHT22;2730;51.512;7.504;2023-02-28T12:11:50;4.80;95.30
5415;DHT22;2730;51.512;7.504;2023-02-28T12:14:42;4.70;95.40
5415;DHT22;2730;51.512;7.504;2023-02-28T12:17:22;4.80;94.90
5415;DHT22;2730;51.512;7.504;2023-02-28T12:19:58;4.80;95.30
5415;DHT22;2730;51.512;7.504;2023-02-28T12:22:30;4.70;95.40
5415;DHT22;2730;51.512;7.504;2023-02-28T12:25:24;4.70;95.30
5415;DHT22;2730;51.512;7.504;2023-02-28T12:27:58;4.70;95.90
5415;DHT22;2730;51.512;7.504;2023-02-28T12:30:26;4.80;95.90
5415;DHT22;2730;51.512;7.504;2023-02-28T12:32:57;4.80;96.40
5415;DHT22;2730;51.512;7.504;2023-02-28T12:35:33;4.80;95.00
5415;DHT22;2730;51.512;7.504;2023-02-28T12:38:04;4.70;95.20
5415;DHT22;2730;51.512;7.504;2023-02-28T12:40:42;4.70;95.30
5415;DHT22;2730;51.512;7.504;2023-02-28T12:43:13;4.70;96.00
5415;DHT22;2730;51.512;7.504;2023-02-28T12:45:43;4.80;96.40
5415;DHT22;2730;51.512;7.504;2023-02-28T12:48:15;4.80;95.60
5415;DHT22;2730;51.512;7.504;2023-02-28T12:50:45;4.90;95.20
5415;DHT22;2730;51.512;7.504;2023-02-28T12:53:18;4.80;95.60
5415;DHT22;2730;51.512;7.504;2023-02-28T12:55:58;4.80;95.60
5415;DHT22;2730;51.512;7.504;2023-02-28T12:58:33;4.70;95.80
5415;DHT22;2730;51.512;7.504;2023-02-28T13:01:20;4.70;96.10
5415;DHT22;2730;51.512;7.504;2023-02-28T13:07:06;4.90;95.80
5415;DHT22;2730;51.512;7.504;2023-02-28T13:09:34;5.00;96.30
5415;DHT22;2730;51.512;7.504;2023-02-28T13:12:12;5.20;97.10
5415;DHT22;2730;51.512;7.504;2023-02-28T13:14:40;5.10;97.80
5415;DHT22;2730;51.512;7.504;2023-02-28T13:17:11;5.10;97.90
5415;DHT22;2730;51.512;7.504;2023-02-28T13:19:42;5.10;97.30
5415;DHT22;2730;51.512;7.504;2023-02-28T13:22:17;5.00;96.80
5415;DHT22;2730;51.512;7.504;2023-02-28T13:24:47;5.00;96.80
5415;DHT22;2730;51.512;7.504;2023-02-28T13:27:37;5.00;96.50
5415;DHT22;2730;51.512;7.504;2023-02-28T13:33:27;5.10;97.60
5415;DHT22;2730;51.512;7.504;2023-02-28T13:36:09;5.20;97.40
5415;DHT22;2730;51.512;7.504;2023-02-28T13:38:39;5.10;98.40
5415;DHT22;2730;51.512;7.504;2023-02-28T13:41:40;5.10;97.30
5415;DHT22;2730;51.512;7.504;2023-02-28T13:44:14;5.10;98.00
5415;DHT22;2730;51.512;7.504;2023-02-28T13:47:20;5.10;99.10
5415;DHT22;2730;51.512;7.504;2023-02-28T13:49:48;5.00;98.80
5415;DHT22;2730;51.512;7.504;2023-02-28T13:52:19;4.80;99.10
5415;DHT22;2730;51.512;7.504;2023-02-28T13:55:21;4.70;99.80
5415;DHT22;2730;51.512;7.504;2023-02-28T13:58:03;4.70;99.80
5415;DHT22;2730;51.512;7.504;2023-02-28T14:00:48;4.60;99.70
5415;DHT22;2730;51.512;7.504;2023-02-28T14:03:34;4.50;99.50
5415;DHT22;2730;51.512;7.504;2023-02-28T14:06:15;4.50;99.40
5415;DHT22;2730;51.512;7.504;2023-02-28T14:08:50;4.60;99.60
5415;DHT22;2730;51.512;7.504;2023-02-28T14:11:31;4.60;99.40
5415;DHT22;2730;51.512;7.504;2023-02-28T14:13:59;4.60;99.30
5415;DHT22;2730;51.512;7.504;2023-02-28T14:16:36;4.70;99.70
5415;DHT22;2730;51.512;7.504;2023-02-28T14:19:11;4.80;99.70
5415;DHT22;2730;51.512;7.504;2023-02-28T14:21:46;4.90;99.60
5415;DHT22;2730;51.512;7.504;2023-02-28T14:24:33;4.70;99.10
5415;DHT22;2730;51.512;7.504;2023-02-28T14:27:24;4.70;99.70
5415;DHT22;2730;51.512;7.504;2023-02-28T14:33:08;4.70;99.90
5415;DHT22;2730;51.512;7.504;2023-02-28T14:35:50;4.70;99.60
5415;DHT22;2730;51.512;7.504;2023-02-28T14:38:23;4.60;99.50
5415;DHT22;2730;51.512;7.504;2023-02-28T14:40:52;4.60;99.60
5415;DHT22;2730;51.512;7.504;2023-02-28T14:43:23;4.70;99.90
5415;DHT22;2730;51.512;7.504;2023-02-28T14:45:52;4.70;99.50
5415;DHT22;2730;51.512;7.504;2023-02-28T14:48:22;4.80;99.40
5415;DHT22;2730;51.512;7.504;2023-02-28T14:50:54;4.90;99.40
5415;DHT22;2730;51.512;7.504;2023-02-28T14:53:23;4.80;99.20
5415;DHT22;2730;51.512;7.504;2023-02-28T14:55:51;4.80;98.80
5415;DHT22;2730;51.512;7.504;2023-02-28T14:58:23;4.80;99.10
5415;DHT22;2730;51.512;7.504;2023-02-28T15:00:52;4.80;98.80
5415;DHT22;2730;51.512;7.504;2023-02-28T15:03:22;4.80;98.60
5415;DHT22;2730;51.512;7.504;2023-02-28T15:05:54;4.80;98.80
5415;DHT22;2730;51.512;7.504;2023-02-28T15:08:21;4.80;99.00
5415;DHT22;2730;51.512;7.504;2023-02-28T15:10:53;4.80;98.40
5415;DHT22;2730;51.512;7.504;2023-02-28T15:13:20;4.80;98.90
5415;DHT22;2730;51.512;7.504;2023-02-28T15:15:51;4.80;99.10
5415;DHT22;2730;51.512;7.504;2023-02-28T15:18:30;4.80;99.20
5415;DHT22;2730;51.512;7.504;2023-02-28T15:21:00;4.80;99.20
5415;DHT22;2730;51.512;7.504;2023-02-28T15:23:29;4.80;98.80
5415;DHT22;2730;51.512;7.504;2023-02-28T15:25:56;4.80;98.60
5415;DHT22;2730;51.512;7.504;2023-02-28T15:28:24;4.80;98.60
5415;DHT22;2730;51.512;7.504;2023-02-28T15:30:53;4.70;98.80
5415;DHT22;2730;51.512;7.504;2023-02-28T15:33:22;4.70;99.30
5415;DHT22;2730;51.512;7.504;2023-02-28T15:35:52;4.70;99.80
5415;DHT22;2730;51.512;7.504;2023-02-28T15:38:29;4.70;99.90
5415;DHT22;2730;51.512;7.504;2023-02-28T15:40:58;4.80;99.90
5415;DHT22;2730;51.512;7.504;2023-02-28T15:43:27;4.70;99.90
5415;DHT22;2730;51.512;7.504;2023-02-28T15:45:57;4.70;99.90
5415;DHT22;2730;51.512;7.504;2023-02-28T15:48:29;4.60;99.90
5415;DHT22;2730;51.512;7.504;2023-02-28T15:51:02;4.60;99.90
5415;DHT22;2730;51.512;7.504;2023-02-28T15:53:35;4.50;99.90
5415;DHT22;2730;51.512;7.504;2023-02-28T15:56:04;4.60;99.90
5415;DHT22;2730;51.512;7.504;2023-02-28T15:58:33;4.50;99.90
5415;DHT22;2730;51.512;7.504;2023-02-28T16:01:06;4.50;99.90
5415;DHT22;2730;51.512;7.504;2023-02-28T16:03:42;4.40;99.90
5415;DHT22;2730;51.512;7.504;2023-02-28T16:09:10;4.40;99.90
5415;DHT22;2730;51.512;7.504;2023-02-28T16:11:40;4.30;99.90
5415;DHT22;2730;51.512;7.504;2023-02-28T16:14:14;4.30;99.90
5415;DHT22;2730;51.512;7.504;2023-02-28T16:16:45;4.20;99.90
5415;DHT22;2730;51.512;7.504;2023-02-28T16:19:13;4.20;99.90
5415;DHT22;2730;51.512;7.504;2023-02-28T16:21:41;4.20;99.90
5415;DHT22;2730;51.512;7.504;2023-02-28T16:24:08;4.30;99.90
5415;DHT22;2730;51.512;7.504;2023-02-28T16:26:35;4.30;99.90
5415;DHT22;2730;51.512;7.504;2023-02-28T16:29:03;4.30;99.90
5415;DHT22;2730;51.512;7.504;2023-02-28T16:31:37;4.20;99.90
5415;DHT22;2730;51.512;7.504;2023-02-28T16:34:04;4.20;99.90
5415;DHT22;2730;51.512;7.504;2023-02-28T16:36:32;4.20;99.90
5415;DHT22;2730;51.512;7.504;2023-02-28T16:39:00;4.10;99.90
5415;DHT22;2730;51.512;7.504;2023-02-28T16:41:28;4.10;99.90
5415;DHT22;2730;51.512;7.504;2023-02-28T16:43:57;4.10;99.90
5415;DHT22;2730;51.512;7.504;2023-02-28T16:46:30;4.10;99.90
5415;DHT22;2730;51.512;7.504;2023-02-28T16:48:57;4.00;99.90
5415;DHT22;2730;51.512;7.504;2023-02-28T16:51:24;4.00;99.90
5415;DHT22;2730;51.512;7.504;2023-02-28T16:53:51;3.80;99.90
5415;DHT22;2730;51.512;7.504;2023-02-28T16:56:21;3.90;99.90
5415;DHT22;2730;51.512;7.504;2023-02-28T16:58:49;3.80;99.90
5415;DHT22;2730;51.512;7.504;2023-02-28T17:01:16;3.80;99.90
5415;DHT22;2730;51.512;7.504;2023-02-28T17:03:47;3.80;99.90
5415;DHT22;2730;51.512;7.504;2023-02-28T17:06:19;3.80;99.90